sensor_id;sensor_type;location;lat;lon;timestamp;pressure;altitude;pressure_sealevel;temperature;humidity
9784;BME280;4931;44.874;-1.092;2022-08-24T00:00:19;101289.09;;;20.30;100.00
9784;BME280;4931;44.874;-1.092;2022-08-24T00:05:06;101281.22;;;20.32;100.00
9784;BME280;4931;44.874;-1.092;2022-08-24T00:09:56;101268.66;;;20.17;100.00
9784;BME280;4931;44.874;-1.092;2022-08-24T00:14:42;101262.28;;;20.07;100.00
9784;BME280;4931;44.874;-1.092;2022-08-24T00:19:33;101253.66;;;20.00;100.00
9784;BME280;4931;44.874;-1.092;2022-08-24T00:24:18;101252.69;;;19.96;100.00
9784;BME280;4931;44.874;-1.092;2022-08-24T00:29:04;101257.06;;;19.97;100.00
9784;BME280;4931;44.874;-1.092;2022-08-24T00:33:50;101249.84;;;20.05;100.00
9784;BME280;4931;44.874;-1.092;2022-08-24T00:38:38;101249.69;;;20.01;100.00
9784;BME280;4931;44.874;-1.092;2022-08-24T00:43:24;101235.31;;;19.90;100.00
9784;BME280;4931;44.874;-1.092;2022-08-24T00:48:13;101239.75;;;19.83;100.00
9784;BME280;4931;44.874;-1.092;2022-08-24T00:53:02;101240.25;;;19.76;100.00
9784;BME280;4931;44.874;-1.092;2022-08-24T00:57:56;101237.31;;;19.72;100.00
9784;BME280;4931;44.874;-1.092;2022-08-24T01:02:45;101234.84;;;19.71;100.00
9784;BME280;4931;44.874;-1.092;2022-08-24T01:07:33;101225.06;;;19.65;100.00
9784;BME280;4931;44.874;-1.092;2022-08-24T01:12:19;101228.81;;;19.69;100.00
9784;BME280;4931;44.874;-1.092;2022-08-24T01:17:12;101221.78;;;19.63;100.00
9784;BME280;4931;44.874;-1.092;2022-08-24T01:22:19;101225.88;;;19.65;100.00
9784;BME280;4931;44.874;-1.092;2022-08-24T01:27:10;101207.88;;;19.63;100.00
9784;BME280;4931;44.874;-1.092;2022-08-24T01:31:58;101213.94;;;19.56;100.00
9784;BME280;4931;44.874;-1.092;2022-08-24T01:36:45;101206.72;;;19.46;100.00
9784;BME280;4931;44.874;-1.092;2022-08-24T01:41:32;101215.41;;;19.45;100.00
9784;BME280;4931;44.874;-1.092;2022-08-24T01:46:19;101213.47;;;19.36;100.00
9784;BME280;4931;44.874;-1.092;2022-08-24T01:51:05;101216.75;;;19.38;100.00
9784;BME280;4931;44.874;-1.092;2022-08-24T01:55:50;101203.00;;;19.33;100.00
9784;BME280;4931;44.874;-1.092;2022-08-24T02:00:35;101218.06;;;19.32;100.00
9784;BME280;4931;44.874;-1.092;2022-08-24T02:05:24;101218.22;;;19.18;100.00
9784;BME280;4931;44.874;-1.092;2022-08-24T02:10:13;101209.91;;;19.10;100.00
9784;BME280;4931;44.874;-1.092;2022-08-24T02:14:59;101215.44;;;19.01;100.00
9784;BME280;4931;44.874;-1.092;2022-08-24T02:19:44;101209.72;;;18.97;100.00
9784;BME280;4931;44.874;-1.092;2022-08-24T02:24:32;101216.91;;;18.98;100.00
9784;BME280;4931;44.874;-1.092;2022-08-24T02:29:18;101212.81;;;18.96;100.00
9784;BME280;4931;44.874;-1.092;2022-08-24T02:34:03;101214.78;;;18.95;100.00
9784;BME280;4931;44.874;-1.092;2022-08-24T02:38:49;101214.41;;;18.88;100.00
9784;BME280;4931;44.874;-1.092;2022-08-24T02:43:37;101215.56;;;18.78;100.00
9784;BME280;4931;44.874;-1.092;2022-08-24T02:48:23;101211.94;;;18.60;100.00
9784;BME280;4931;44.874;-1.092;2022-08-24T02:53:09;101205.19;;;18.44;100.00
9784;BME280;4931;44.874;-1.092;2022-08-24T02:57:55;101214.34;;;18.53;100.00
9784;BME280;4931;44.874;-1.092;2022-08-24T03:02:42;101215.38;;;18.57;100.00
9784;BME280;4931;44.874;-1.092;2022-08-24T03:07:28;101214.34;;;18.53;100.00
9784;BME280;4931;44.874;-1.092;2022-08-24T03:12:13;101209.44;;;18.50;100.00
9784;BME280;4931;44.874;-1.092;2022-08-24T03:16:59;101207.81;;;18.49;100.00
9784;BME280;4931;44.874;-1.092;2022-08-24T03:21:46;101209.97;;;18.52;100.00
9784;BME280;4931;44.874;-1.092;2022-08-24T03:26:32;101215.00;;;18.50;100.00
9784;BME280;4931;44.874;-1.092;2022-08-24T03:31:18;101206.81;;;18.45;100.00
9784;BME280;4931;44.874;-1.092;2022-08-24T03:36:03;101195.38;;;18.37;100.00
9784;BME280;4931;44.874;-1.092;2022-08-24T03:40:57;101197.31;;;18.37;100.00
9784;BME280;4931;44.874;-1.092;2022-08-24T03:45:42;101196.19;;;18.38;100.00
9784;BME280;4931;44.874;-1.092;2022-08-24T03:50:27;101199.28;;;18.36;100.00
9784;BME280;4931;44.874;-1.092;2022-08-24T03:55:13;101200.38;;;18.27;100.00
9784;BME280;4931;44.874;-1.092;2022-08-24T04:00:02;101202.16;;;18.14;100.00
9784;BME280;4931;44.874;-1.092;2022-08-24T04:04:48;101201.84;;;18.24;100.00
9784;BME280;4931;44.874;-1.092;2022-08-24T04:09:33;101210.69;;;18.26;100.00
9784;BME280;4931;44.874;-1.092;2022-08-24T04:14:19;101200.31;;;18.09;100.00
9784;BME280;4931;44.874;-1.092;2022-08-24T04:19:12;101198.53;;;18.04;100.00
9784;BME280;4931;44.874;-1.092;2022-08-24T04:23:58;101192.50;;;18.11;100.00
9784;BME280;4931;44.874;-1.092;2022-08-24T04:28:43;101187.09;;;18.06;100.00
9784;BME280;4931;44.874;-1.092;2022-08-24T04:33:28;101187.28;;;17.87;100.00
9784;BME280;4931;44.874;-1.092;2022-08-24T04:38:17;101194.28;;;17.75;100.00
9784;BME280;4931;44.874;-1.092;2022-08-24T04:43:03;101192.38;;;17.85;100.00
9784;BME280;4931;44.874;-1.092;2022-08-24T04:47:48;101189.59;;;17.85;100.00
9784;BME280;4931;44.874;-1.092;2022-08-24T04:52:33;101179.09;;;17.82;100.00
9784;BME280;4931;44.874;-1.092;2022-08-24T04:57:21;101179.75;;;17.79;100.00
9784;BME280;4931;44.874;-1.092;2022-08-24T05:02:07;101171.56;;;17.73;100.00
9784;BME280;4931;44.874;-1.092;2022-08-24T05:06:52;101172.84;;;17.67;100.00
9784;BME280;4931;44.874;-1.092;2022-08-24T05:11:38;101176.00;;;17.52;100.00
9784;BME280;4931;44.874;-1.092;2022-08-24T05:16:33;101176.44;;;17.45;100.00
9784;BME280;4931;44.874;-1.092;2022-08-24T05:21:20;101175.19;;;17.51;100.00
9784;BME280;4931;44.874;-1.092;2022-08-24T05:26:06;101178.72;;;17.66;100.00
9784;BME280;4931;44.874;-1.092;2022-08-24T05:30:52;101185.44;;;17.73;100.00
9784;BME280;4931;44.874;-1.092;2022-08-24T05:35:40;101183.47;;;17.74;100.00
9784;BME280;4931;44.874;-1.092;2022-08-24T05:40:25;101190.22;;;17.82;100.00
9784;BME280;4931;44.874;-1.092;2022-08-24T05:45:14;101182.03;;;17.76;100.00
9784;BME280;4931;44.874;-1.092;2022-08-24T05:50:00;101185.16;;;17.84;100.00
9784;BME280;4931;44.874;-1.092;2022-08-24T05:54:50;101183.38;;;17.88;100.00
9784;BME280;4931;44.874;-1.092;2022-08-24T05:59:37;101188.28;;;17.91;100.00
9784;BME280;4931;44.874;-1.092;2022-08-24T06:04:22;101185.91;;;17.98;100.00
9784;BME280;4931;44.874;-1.092;2022-08-24T06:09:10;101188.75;;;18.16;100.00
9784;BME280;4931;44.874;-1.092;2022-08-24T06:14:01;101189.81;;;18.37;100.00
9784;BME280;4931;44.874;-1.092;2022-08-24T06:18:49;101180.44;;;18.91;100.00
9784;BME280;4931;44.874;-1.092;2022-08-24T06:23:35;101169.94;;;19.40;100.00
9784;BME280;4931;44.874;-1.092;2022-08-24T06:28:20;101167.72;;;19.81;100.00
9784;BME280;4931;44.874;-1.092;2022-08-24T06:33:08;101164.75;;;20.25;100.00
9784;BME280;4931;44.874;-1.092;2022-08-24T06:37:54;101160.72;;;20.65;100.00
9784;BME280;4931;44.874;-1.092;2022-08-24T06:42:40;101165.25;;;20.99;100.00
9784;BME280;4931;44.874;-1.092;2022-08-24T06:47:26;101163.28;;;21.33;100.00
9784;BME280;4931;44.874;-1.092;2022-08-24T06:52:13;101156.22;;;21.82;100.00
9784;BME280;4931;44.874;-1.092;2022-08-24T06:56:59;101156.59;;;22.17;100.00
9784;BME280;4931;44.874;-1.092;2022-08-24T07:01:44;101153.88;;;22.33;100.00
9784;BME280;4931;44.874;-1.092;2022-08-24T07:06:29;101152.41;;;22.89;100.00
9784;BME280;4931;44.874;-1.092;2022-08-24T07:11:18;101147.19;;;23.16;100.00
9784;BME280;4931;44.874;-1.092;2022-08-24T07:16:04;101145.28;;;23.64;100.00
9784;BME280;4931;44.874;-1.092;2022-08-24T07:20:51;101140.53;;;24.13;100.00
9784;BME280;4931;44.874;-1.092;2022-08-24T07:25:36;101133.88;;;24.37;100.00
9784;BME280;4931;44.874;-1.092;2022-08-24T07:30:31;101126.50;;;24.84;100.00
9784;BME280;4931;44.874;-1.092;2022-08-24T07:35:16;101122.94;;;25.07;100.00
9784;BME280;4931;44.874;-1.092;2022-08-24T07:40:03;101120.25;;;25.33;100.00
9784;BME280;4931;44.874;-1.092;2022-08-24T07:44:49;101122.09;;;25.68;100.00
9784;BME280;4931;44.874;-1.092;2022-08-24T07:49:36;101125.78;;;26.23;100.00
9784;BME280;4931;44.874;-1.092;2022-08-24T07:54:24;101115.78;;;26.25;100.00
9784;BME280;4931;44.874;-1.092;2022-08-24T07:59:10;101118.19;;;26.84;100.00
9784;BME280;4931;44.874;-1.092;2022-08-24T08:03:56;101117.03;;;27.26;100.00
9784;BME280;4931;44.874;-1.092;2022-08-24T08:08:44;101128.41;;;27.33;100.00
9784;BME280;4931;44.874;-1.092;2022-08-24T08:13:29;101123.03;;;27.59;100.00
9784;BME280;4931;44.874;-1.092;2022-08-24T08:18:15;101117.81;;;28.06;100.00
9784;BME280;4931;44.874;-1.092;2022-08-24T08:23:02;101116.41;;;28.41;100.00
9784;BME280;4931;44.874;-1.092;2022-08-24T08:28:03;101118.19;;;28.71;100.00
9784;BME280;4931;44.874;-1.092;2022-08-24T08:33:07;101120.69;;;28.94;100.00
9784;BME280;4931;44.874;-1.092;2022-08-24T08:37:52;101111.88;;;29.10;100.00
9784;BME280;4931;44.874;-1.092;2022-08-24T08:42:47;101118.00;;;29.48;100.00
9784;BME280;4931;44.874;-1.092;2022-08-24T08:48:05;101105.50;;;29.63;100.00
9784;BME280;4931;44.874;-1.092;2022-08-24T08:53:18;101107.91;;;29.76;100.00
9784;BME280;4931;44.874;-1.092;2022-08-24T08:58:17;101101.88;;;29.95;100.00
9784;BME280;4931;44.874;-1.092;2022-08-24T09:03:28;101106.72;;;30.02;100.00
9784;BME280;4931;44.874;-1.092;2022-08-24T09:08:23;101108.34;;;29.96;100.00
9784;BME280;4931;44.874;-1.092;2022-08-24T09:13:26;101105.53;;;29.71;100.00
9784;BME280;4931;44.874;-1.092;2022-08-24T09:18:26;101110.34;;;30.10;100.00
9784;BME280;4931;44.874;-1.092;2022-08-24T09:23:24;101097.78;;;30.33;100.00
9784;BME280;4931;44.874;-1.092;2022-08-24T09:28:20;101087.63;;;30.39;100.00
9784;BME280;4931;44.874;-1.092;2022-08-24T09:33:19;101096.50;;;30.55;100.00
9784;BME280;4931;44.874;-1.092;2022-08-24T09:38:16;101093.19;;;30.75;100.00
9784;BME280;4931;44.874;-1.092;2022-08-24T09:59:11;101074.94;;;31.46;95.81
9784;BME280;4931;44.874;-1.092;2022-08-24T10:04:09;101073.47;;;31.80;90.50
9784;BME280;4931;44.874;-1.092;2022-08-24T10:09:17;101076.63;;;31.40;92.52
9784;BME280;4931;44.874;-1.092;2022-08-24T10:14:12;101067.06;;;32.14;86.53
9784;BME280;4931;44.874;-1.092;2022-08-24T10:19:10;101056.03;;;32.54;84.36
9784;BME280;4931;44.874;-1.092;2022-08-24T10:24:17;101059.19;;;32.64;81.60
9784;BME280;4931;44.874;-1.092;2022-08-24T10:29:22;101056.72;;;32.66;78.31
9784;BME280;4931;44.874;-1.092;2022-08-24T10:34:25;101048.47;;;32.79;73.74
9784;BME280;4931;44.874;-1.092;2022-08-24T10:39:34;101050.41;;;33.40;68.21
9784;BME280;4931;44.874;-1.092;2022-08-24T10:44:48;101047.16;;;33.10;68.91
9784;BME280;4931;44.874;-1.092;2022-08-24T10:50:07;101039.88;;;33.60;64.92
9784;BME280;4931;44.874;-1.092;2022-08-24T10:55:14;101031.47;;;33.30;66.90
9784;BME280;4931;44.874;-1.092;2022-08-24T11:00:07;101027.25;;;33.85;61.35
9784;BME280;4931;44.874;-1.092;2022-08-24T11:05:07;101013.25;;;33.95;57.59
9784;BME280;4931;44.874;-1.092;2022-08-24T11:09:56;101005.25;;;33.66;55.89
9784;BME280;4931;44.874;-1.092;2022-08-24T11:14:48;101005.66;;;34.08;53.60
9784;BME280;4931;44.874;-1.092;2022-08-24T11:19:33;100995.25;;;33.57;50.55
9784;BME280;4931;44.874;-1.092;2022-08-24T11:24:38;100979.53;;;33.73;49.67
9784;BME280;4931;44.874;-1.092;2022-08-24T11:29:28;100987.44;;;33.85;50.71
9784;BME280;4931;44.874;-1.092;2022-08-24T11:34:18;100986.94;;;33.90;50.75
9784;BME280;4931;44.874;-1.092;2022-08-24T11:39:14;100977.59;;;34.67;49.38
9784;BME280;4931;44.874;-1.092;2022-08-24T11:44:02;100978.00;;;34.49;47.70
9784;BME280;4931;44.874;-1.092;2022-08-24T11:48:59;100972.41;;;34.45;44.69
9784;BME280;4931;44.874;-1.092;2022-08-24T11:53:57;100967.63;;;34.75;46.80
9784;BME280;4931;44.874;-1.092;2022-08-24T11:58:51;100963.41;;;35.00;45.64
9784;BME280;4931;44.874;-1.092;2022-08-24T12:03:48;100955.03;;;36.01;44.20
9784;BME280;4931;44.874;-1.092;2022-08-24T12:08:39;100965.97;;;35.73;43.72
9784;BME280;4931;44.874;-1.092;2022-08-24T12:13:36;100954.66;;;35.86;43.60
9784;BME280;4931;44.874;-1.092;2022-08-24T12:18:28;100962.75;;;35.71;43.94
9784;BME280;4931;44.874;-1.092;2022-08-24T12:23:18;100952.84;;;36.05;41.42
9784;BME280;4931;44.874;-1.092;2022-08-24T12:28:05;100953.75;;;35.43;42.11
9784;BME280;4931;44.874;-1.092;2022-08-24T12:32:55;100948.47;;;35.58;42.24
9784;BME280;4931;44.874;-1.092;2022-08-24T12:37:46;100946.09;;;35.56;42.25
9784;BME280;4931;44.874;-1.092;2022-08-24T12:42:38;100938.09;;;36.36;38.56
9784;BME280;4931;44.874;-1.092;2022-08-24T12:47:41;100934.06;;;36.20;41.08
9784;BME280;4931;44.874;-1.092;2022-08-24T12:52:52;100931.97;;;35.95;38.35
9784;BME280;4931;44.874;-1.092;2022-08-24T12:57:53;100932.28;;;35.84;37.93
9784;BME280;4931;44.874;-1.092;2022-08-24T13:03:06;100925.09;;;35.17;39.13
9784;BME280;4931;44.874;-1.092;2022-08-24T13:08:08;100936.78;;;35.39;38.82
9784;BME280;4931;44.874;-1.092;2022-08-24T13:13:09;100919.78;;;35.03;39.14
9784;BME280;4931;44.874;-1.092;2022-08-24T13:17:56;100920.22;;;35.34;38.02
9784;BME280;4931;44.874;-1.092;2022-08-24T13:22:58;100914.00;;;35.52;37.76
9784;BME280;4931;44.874;-1.092;2022-08-24T13:28:00;100907.47;;;35.22;37.41
9784;BME280;4931;44.874;-1.092;2022-08-24T13:32:54;100909.16;;;35.03;37.56
9784;BME280;4931;44.874;-1.092;2022-08-24T13:37:42;100904.25;;;35.37;37.09
9784;BME280;4931;44.874;-1.092;2022-08-24T13:43:10;100892.69;;;35.11;37.78
9784;BME280;4931;44.874;-1.092;2022-08-24T13:48:18;100892.50;;;34.52;39.10
9784;BME280;4931;44.874;-1.092;2022-08-24T13:53:36;100887.78;;;34.46;40.42
9784;BME280;4931;44.874;-1.092;2022-08-24T13:58:39;100876.50;;;34.58;39.00
9784;BME280;4931;44.874;-1.092;2022-08-24T14:03:40;100870.34;;;34.44;39.82
9784;BME280;4931;44.874;-1.092;2022-08-24T14:08:37;100873.22;;;34.23;40.20
9784;BME280;4931;44.874;-1.092;2022-08-24T14:13:35;100873.22;;;34.23;40.64
9784;BME280;4931;44.874;-1.092;2022-08-24T14:18:36;100865.91;;;34.22;39.79
9784;BME280;4931;44.874;-1.092;2022-08-24T14:23:53;100864.72;;;35.22;37.29
9784;BME280;4931;44.874;-1.092;2022-08-24T14:28:44;100860.13;;;34.79;37.23
9784;BME280;4931;44.874;-1.092;2022-08-24T14:33:31;100848.94;;;34.88;37.12
9784;BME280;4931;44.874;-1.092;2022-08-24T14:38:30;100850.25;;;34.67;36.56
9784;BME280;4931;44.874;-1.092;2022-08-24T14:43:22;100846.41;;;35.07;36.41
9784;BME280;4931;44.874;-1.092;2022-08-24T14:48:20;100839.44;;;35.08;36.01
9784;BME280;4931;44.874;-1.092;2022-08-24T14:53:24;100833.22;;;34.97;35.73
9784;BME280;4931;44.874;-1.092;2022-08-24T14:58:20;100831.78;;;35.05;35.04
9784;BME280;4931;44.874;-1.092;2022-08-24T15:08:35;100832.53;;;34.93;35.76
9784;BME280;4931;44.874;-1.092;2022-08-24T15:13:28;100820.97;;;34.83;35.30
9784;BME280;4931;44.874;-1.092;2022-08-24T15:18:22;100821.84;;;34.47;35.58
9784;BME280;4931;44.874;-1.092;2022-08-24T15:23:13;100809.47;;;34.54;35.87
9784;BME280;4931;44.874;-1.092;2022-08-24T15:28:10;100804.56;;;34.21;36.80
9784;BME280;4931;44.874;-1.092;2022-08-24T15:33:04;100817.00;;;34.28;38.09
9784;BME280;4931;44.874;-1.092;2022-08-24T15:37:52;100818.28;;;34.27;37.07
9784;BME280;4931;44.874;-1.092;2022-08-24T15:42:37;100826.75;;;33.93;38.31
9784;BME280;4931;44.874;-1.092;2022-08-24T15:47:28;100824.22;;;33.79;38.66
9784;BME280;4931;44.874;-1.092;2022-08-24T15:52:37;100824.22;;;33.79;38.74
9784;BME280;4931;44.874;-1.092;2022-08-24T15:57:27;100829.47;;;33.60;38.87
9784;BME280;4931;44.874;-1.092;2022-08-24T16:02:27;100827.06;;;33.59;38.77
9784;BME280;4931;44.874;-1.092;2022-08-24T16:07:23;100825.63;;;33.51;38.57
9784;BME280;4931;44.874;-1.092;2022-08-24T16:12:14;100819.03;;;33.74;37.65
9784;BME280;4931;44.874;-1.092;2022-08-24T16:17:21;100818.13;;;34.34;36.65
9784;BME280;4931;44.874;-1.092;2022-08-24T16:22:11;100814.56;;;34.46;36.95
9784;BME280;4931;44.874;-1.092;2022-08-24T16:27:03;100809.41;;;34.57;35.93
9784;BME280;4931;44.874;-1.092;2022-08-24T16:31:49;100803.56;;;34.32;36.06
9784;BME280;4931;44.874;-1.092;2022-08-24T16:36:36;100805.13;;;34.33;35.75
9784;BME280;4931;44.874;-1.092;2022-08-24T16:41:24;100809.22;;;34.65;36.00
9784;BME280;4931;44.874;-1.092;2022-08-24T16:46:11;100806.00;;;34.63;35.53
9784;BME280;4931;44.874;-1.092;2022-08-24T16:50:56;100803.78;;;35.16;35.46
9784;BME280;4931;44.874;-1.092;2022-08-24T16:55:42;100801.47;;;34.65;35.33
9784;BME280;4931;44.874;-1.092;2022-08-24T17:00:32;100805.75;;;34.57;35.95
9784;BME280;4931;44.874;-1.092;2022-08-24T17:05:18;100798.00;;;34.57;36.41
9784;BME280;4931;44.874;-1.092;2022-08-24T17:10:05;100800.97;;;34.37;36.74
9784;BME280;4931;44.874;-1.092;2022-08-24T17:14:52;100804.16;;;33.86;38.18
9784;BME280;4931;44.874;-1.092;2022-08-24T17:19:40;100806.72;;;33.60;39.65
9784;BME280;4931;44.874;-1.092;2022-08-24T17:24:26;100818.63;;;33.35;39.32
9784;BME280;4931;44.874;-1.092;2022-08-24T17:29:11;100818.56;;;33.15;40.53
9784;BME280;4931;44.874;-1.092;2022-08-24T17:34:00;100816.56;;;32.92;41.50
9784;BME280;4931;44.874;-1.092;2022-08-24T17:38:49;100819.56;;;32.85;43.43
9784;BME280;4931;44.874;-1.092;2022-08-24T17:43:37;100831.19;;;32.67;43.90
9784;BME280;4931;44.874;-1.092;2022-08-24T17:48:24;100828.28;;;32.47;44.13
9784;BME280;4931;44.874;-1.092;2022-08-24T17:53:10;100825.72;;;32.28;45.67
9784;BME280;4931;44.874;-1.092;2022-08-24T17:58:00;100830.38;;;32.15;46.48
9784;BME280;4931;44.874;-1.092;2022-08-24T18:02:45;100828.66;;;32.21;46.50
9784;BME280;4931;44.874;-1.092;2022-08-24T18:07:30;100820.88;;;32.25;46.76
9784;BME280;4931;44.874;-1.092;2022-08-24T18:12:34;100812.69;;;32.58;45.78
9784;BME280;4931;44.874;-1.092;2022-08-24T18:17:27;100819.09;;;32.63;45.78
9784;BME280;4931;44.874;-1.092;2022-08-24T18:22:14;100828.41;;;32.63;45.58
9784;BME280;4931;44.874;-1.092;2022-08-24T18:27:03;100827.47;;;32.46;45.93
9784;BME280;4931;44.874;-1.092;2022-08-24T18:31:51;100848.69;;;32.38;46.62
9784;BME280;4931;44.874;-1.092;2022-08-24T18:36:39;100860.34;;;31.85;55.82
9784;BME280;4931;44.874;-1.092;2022-08-24T18:41:31;100868.53;;;31.41;61.24
9784;BME280;4931;44.874;-1.092;2022-08-24T18:46:17;100878.06;;;31.20;63.71
9784;BME280;4931;44.874;-1.092;2022-08-24T18:51:03;100871.03;;;30.90;65.35
9784;BME280;4931;44.874;-1.092;2022-08-24T18:55:51;100879.66;;;30.76;65.48
9784;BME280;4931;44.874;-1.092;2022-08-24T19:00:38;100875.78;;;30.55;66.01
9784;BME280;4931;44.874;-1.092;2022-08-24T19:05:24;100871.31;;;30.54;64.82
9784;BME280;4931;44.874;-1.092;2022-08-24T19:10:11;100871.47;;;30.25;69.57
9784;BME280;4931;44.874;-1.092;2022-08-24T19:15:00;100869.56;;;30.11;71.93
9784;BME280;4931;44.874;-1.092;2022-08-24T19:19:46;100865.13;;;30.07;70.75
9784;BME280;4931;44.874;-1.092;2022-08-24T19:24:31;100855.94;;;29.88;71.03
9784;BME280;4931;44.874;-1.092;2022-08-24T19:29:17;100861.63;;;29.77;67.78
9784;BME280;4931;44.874;-1.092;2022-08-24T19:34:25;100849.19;;;29.53;71.33
9784;BME280;4931;44.874;-1.092;2022-08-24T19:39:10;100854.13;;;29.27;74.25
9784;BME280;4931;44.874;-1.092;2022-08-24T19:43:57;100861.75;;;29.30;77.03
9784;BME280;4931;44.874;-1.092;2022-08-24T19:49:08;100852.06;;;29.39;72.92
9784;BME280;4931;44.874;-1.092;2022-08-24T19:53:56;100852.84;;;29.50;71.22
9784;BME280;4931;44.874;-1.092;2022-08-24T19:58:44;100864.09;;;29.57;70.40
9784;BME280;4931;44.874;-1.092;2022-08-24T20:03:30;100864.88;;;29.69;66.71
9784;BME280;4931;44.874;-1.092;2022-08-24T20:08:16;100877.50;;;29.31;66.04
9784;BME280;4931;44.874;-1.092;2022-08-24T20:13:04;100878.69;;;29.09;68.56
9784;BME280;4931;44.874;-1.092;2022-08-24T20:17:51;100900.50;;;28.90;69.64
9784;BME280;4931;44.874;-1.092;2022-08-24T20:22:38;100905.25;;;28.36;76.30
9784;BME280;4931;44.874;-1.092;2022-08-24T20:27:25;100910.94;;;28.50;71.59
9784;BME280;4931;44.874;-1.092;2022-08-24T20:32:14;100909.66;;;28.29;71.74
9784;BME280;4931;44.874;-1.092;2022-08-24T20:37:00;100910.66;;;27.85;73.79
9784;BME280;4931;44.874;-1.092;2022-08-24T20:41:45;100919.56;;;27.94;76.30
9784;BME280;4931;44.874;-1.092;2022-08-24T20:46:31;100938.09;;;27.95;76.05
9784;BME280;4931;44.874;-1.092;2022-08-24T20:51:18;100950.91;;;27.78;76.23
9784;BME280;4931;44.874;-1.092;2022-08-24T20:56:08;100970.09;;;27.58;81.62
9784;BME280;4931;44.874;-1.092;2022-08-24T21:00:53;100978.44;;;27.44;83.88
9784;BME280;4931;44.874;-1.092;2022-08-24T21:05:39;100977.63;;;27.40;79.16
9784;BME280;4931;44.874;-1.092;2022-08-24T21:10:27;100974.31;;;27.30;82.15
9784;BME280;4931;44.874;-1.092;2022-08-24T21:15:13;100979.47;;;27.21;84.90
9784;BME280;4931;44.874;-1.092;2022-08-24T21:19:59;100975.50;;;27.29;84.97
9784;BME280;4931;44.874;-1.092;2022-08-24T21:24:44;100990.47;;;26.92;88.23
9784;BME280;4931;44.874;-1.092;2022-08-24T21:29:32;100999.16;;;26.80;88.98
9784;BME280;4931;44.874;-1.092;2022-08-24T21:34:17;101003.25;;;26.86;87.61
9784;BME280;4931;44.874;-1.092;2022-08-24T21:39:15;101006.56;;;26.95;87.35
9784;BME280;4931;44.874;-1.092;2022-08-24T21:44:01;101018.47;;;26.81;94.97
9784;BME280;4931;44.874;-1.092;2022-08-24T21:48:49;101032.59;;;26.85;100.00
9784;BME280;4931;44.874;-1.092;2022-08-24T21:53:34;101028.19;;;26.88;100.00
9784;BME280;4931;44.874;-1.092;2022-08-24T21:58:19;101030.56;;;26.82;100.00
9784;BME280;4931;44.874;-1.092;2022-08-24T22:03:05;101030.38;;;26.71;100.00
9784;BME280;4931;44.874;-1.092;2022-08-24T22:07:54;101022.31;;;26.70;100.00
9784;BME280;4931;44.874;-1.092;2022-08-24T22:12:41;101028.47;;;26.45;100.00
9784;BME280;4931;44.874;-1.092;2022-08-24T22:17:27;101051.72;;;26.42;100.00
9784;BME280;4931;44.874;-1.092;2022-08-24T22:22:12;101059.66;;;26.32;100.00
9784;BME280;4931;44.874;-1.092;2022-08-24T22:27:01;101065.66;;;26.31;100.00
9784;BME280;4931;44.874;-1.092;2022-08-24T22:31:46;101064.81;;;26.27;100.00
9784;BME280;4931;44.874;-1.092;2022-08-24T22:36:32;101074.69;;;26.17;100.00
9784;BME280;4931;44.874;-1.092;2022-08-24T22:41:17;101073.03;;;26.12;100.00
9784;BME280;4931;44.874;-1.092;2022-08-24T22:46:05;101079.41;;;26.09;100.00
9784;BME280;4931;44.874;-1.092;2022-08-24T22:50:51;101079.06;;;25.88;100.00
9784;BME280;4931;44.874;-1.092;2022-08-24T22:55:36;101067.81;;;25.88;100.00
9784;BME280;4931;44.874;-1.092;2022-08-24T23:00:21;101074.53;;;25.79;100.00
9784;BME280;4931;44.874;-1.092;2022-08-24T23:05:10;101079.09;;;25.64;100.00
9784;BME280;4931;44.874;-1.092;2022-08-24T23:09:55;101087.34;;;25.54;100.00
9784;BME280;4931;44.874;-1.092;2022-08-24T23:14:40;101072.81;;;25.48;100.00
9784;BME280;4931;44.874;-1.092;2022-08-24T23:19:26;101065.25;;;25.52;100.00
9784;BME280;4931;44.874;-1.092;2022-08-24T23:24:27;101051.06;;;25.45;100.00
9784;BME280;4931;44.874;-1.092;2022-08-24T23:29:13;101038.09;;;25.37;100.00
9784;BME280;4931;44.874;-1.092;2022-08-24T23:33:58;101046.34;;;25.29;100.00
9784;BME280;4931;44.874;-1.092;2022-08-24T23:38:44;101048.19;;;25.18;100.00
9784;BME280;4931;44.874;-1.092;2022-08-24T23:43:32;101046.84;;;25.12;100.00
9784;BME280;4931;44.874;-1.092;2022-08-24T23:48:17;101060.28;;;25.22;100.00
9784;BME280;4931;44.874;-1.092;2022-08-24T23:53:03;101059.41;;;25.18;100.00
9784;BME280;4931;44.874;-1.092;2022-08-24T23:57:49;101058.59;;;25.17;100.00
